Terminal Aerodrome Forecast
Issued by NWS Wichita, KS

Home | Current Version | Previous Version | Text Only | Print | Product List | Glossary On
Versions: 1 2 3 4 5 6 7 8 9 10 11 12 13 14 15 16 17 18 19 20 21 22 23 24 25 26 27 28
000
FTUS43 KICT 220540
TAFICT
TAF
KICT 220540Z 2206/2306 16014KT 4SM BR VCSH OVC005
      TEMPO 2206/2210 2SM -RA BR OVC003
     FM221500 24015KT P6SM VCSH SCT008 BKN012
     FM221800 31018G25KT P6SM SCT020 BKN035
     FM230000 30008KT P6SM SCT100=

USA.gov is the U.S. government's official web portal to all federal, state and local government web resources and services.